Kenbridge, Virginia
Current Conditions -  °F | °C
As of 7:55 PM on Friday 19 Dec 2014 (Local Time) from KW31 Reporting Station
Clear Clear  
Wind Chill: 34°   Ceiling: Unl
Heat Index: 34°   Visibility: 10mi
Dew Point: 28°   Wind: 0mph
Humidity: 79%   Direction: NA
Pressure: 30.18"   Gusts: NA
Location:  36.96°N, 78.13°W
Report Text: KW31 200055Z AUTO 00000KT 10SM CLR 01/M02 A3018 RMK AO1 T00111021
Loading
Personal Weather Stations






























Interactive Weather Map New forecast layout! Learn more

10-Day Weather Forecast

Advertisements
Track Severe Weather on mobile